Captain Badr — 5IM905 — position and weather

sailwx.info

Track history (hours):
 
Tides and Currents Weather Stations Pressure Air Temp Water Temp Dewpoint Dewpoint Depression Visibility Wind Speed Wind Dir Waves Ship Positions

Captain Badr

Last reported at 2018-Jun-21 20:47 UTC. Time now 2018-Jun-23 02:56 UTC.
Position N 40°54' E 001°40'.

Length 86 m; draft 5.2 m.

Type: Ship. MMSI: 677080500.

Date/timePositionNaut miles runAvg speedWind from/ knotsBaromVisibWave heightAir tempDewpointWater temp
2018-Jun-21 20:47N 40°54' E 001°40'3 9.1
2018-Jun-21 20:28N 40°53' E 001°43'4 9.0
2018-Jun-21 20:00N 40°50' E 001°47'5 8.9
2018-Jun-21 19:29N 40°48' E 001°52'4 9.1
2018-Jun-21 19:00N 40°45' E 001°57'5 9.4
2018-Jun-21 18:30N 40°43' E 002°02'5 9.1
2018-Jun-21 18:00N 40°41' E 002°08'4 8.9
2018-Jun-21 17:31N 40°38' E 002°12'4 8.9
2018-Jun-21 17:01N 40°36' E 002°17'6 9.0
2018-Jun-21 16:19N 40°32' E 002°24'6 9.0
2018-Jun-21 15:36N 40°29' E 002°31'4 9.0
2018-Jun-21 15:07N 40°26' E 002°36'1 8.9
2018-Jun-21 14:57N 40°26' E 002°38'4 9.1
2018-Jun-21 14:29N 40°24' E 002°43'38 9.2
2018-Jun-21 10:24N 40°02' E 003°23'45 9.2
2018-Jun-21 05:29N 39°39' E 004°15'5 9.3
2018-Jun-21 05:00N 39°38' E 004°20'6 9.3
2018-Jun-21 04:19N 39°36' E 004°28'5 9.3
2018-Jun-21 03:49N 39°34' E 004°34'3 9.4
2018-Jun-21 03:30N 39°34' E 004°38'5 8.1
2018-Jun-21 02:53N 39°31' E 004°43'3 9.4
2018-Jun-21 02:30N 39°30' E 004°47'  
2018-Jun-12 01:57N 33°10' E 013°57'10 7.8
2018-Jun-12 00:40N 33°19' E 013°50'1 7.6
2018-Jun-12 00:29N 33°20' E 013°49'4 7.6
2018-Jun-11 23:59N 33°23' E 013°47'9 7.5
2018-Jun-11 22:49N 33°31' E 013°42'2 7.4
2018-Jun-11 22:30N 33°33' E 013°40'4 7.3
2018-Jun-11 21:59N 33°36' E 013°37'3 7.2
2018-Jun-11 21:31N 33°39' E 013°35'4 7.4
2018-Jun-11 21:00N 33°42' E 013°33'  
Track history (hours):
 
Tides and Currents Weather Stations Pressure Air Temp Water Temp Dewpoint Dewpoint Depression Visibility Wind Speed Wind Dir Waves Ship Positions

Captain Badr

Last reported at 2018-Jun-21 20:47 UTC. Time now 2018-Jun-23 02:56 UTC.
Position N 40°54' E 001°40'.

Length 86 m; draft 5.2 m.

Type: Ship. MMSI: 677080500.

Date/timePositionNaut miles runAvg speedWind from/ knotsBaromVisibWave heightAir tempDewpointWater temp
2018-Jun-21 20:47N 40°54' E 001°40'3 9.1
2018-Jun-21 20:28N 40°53' E 001°43'4 9.0
2018-Jun-21 20:00N 40°50' E 001°47'5 8.9
2018-Jun-21 19:29N 40°48' E 001°52'4 9.1
2018-Jun-21 19:00N 40°45' E 001°57'5 9.4
2018-Jun-21 18:30N 40°43' E 002°02'5 9.1
2018-Jun-21 18:00N 40°41' E 002°08'4 8.9
2018-Jun-21 17:31N 40°38' E 002°12'4 8.9
2018-Jun-21 17:01N 40°36' E 002°17'6 9.0
2018-Jun-21 16:19N 40°32' E 002°24'6 9.0
2018-Jun-21 15:36N 40°29' E 002°31'4 9.0
2018-Jun-21 15:07N 40°26' E 002°36'1 8.9
2018-Jun-21 14:57N 40°26' E 002°38'4 9.1
2018-Jun-21 14:29N 40°24' E 002°43'38 9.2
2018-Jun-21 10:24N 40°02' E 003°23'45 9.2
2018-Jun-21 05:29N 39°39' E 004°15'5 9.3
2018-Jun-21 05:00N 39°38' E 004°20'6 9.3
2018-Jun-21 04:19N 39°36' E 004°28'5 9.3
2018-Jun-21 03:49N 39°34' E 004°34'3 9.4
2018-Jun-21 03:30N 39°34' E 004°38'5 8.1
2018-Jun-21 02:53N 39°31' E 004°43'3 9.4
2018-Jun-21 02:30N 39°30' E 004°47'  
2018-Jun-12 01:57N 33°10' E 013°57'10 7.8
2018-Jun-12 00:40N 33°19' E 013°50'1 7.6
2018-Jun-12 00:29N 33°20' E 013°49'4 7.6
2018-Jun-11 23:59N 33°23' E 013°47'9 7.5
2018-Jun-11 22:49N 33°31' E 013°42'2 7.4
2018-Jun-11 22:30N 33°33' E 013°40'4 7.3
2018-Jun-11 21:59N 33°36' E 013°37'3 7.2
2018-Jun-11 21:31N 33°39' E 013°35'4 7.4
2018-Jun-11 21:00N 33°42' E 013°33'  

Dump ship's entire track history